Time;durP1;ratioP1;P1;durP2;ratioP2;P2;SDS_P1;SDS_P2;PMS_P1;PMS_P2;Temp;Humidity;BMP_temperature;BMP_pressure;BME280_temperature;BME280_humidity;BME280_pressure;Samples;Min_cycle;Max_cycle;Signal;HPM_P1;HPM_P2
2021/01/14 06:17:04;;;;;;;1999.90;999.90;;;-2.00;99.90;;;;;;5086428;28;21153;-46
2021/01/14 06:19:31;;;;;;;1999.90;999.90;;;-2.00;99.90;;;;;;5086701;28;20182;-46
2021/01/14 06:21:58;;;;;;;1999.90;999.90;;;-1.90;99.90;;;;;;5071436;28;20424;-46
2021/01/14 06:24:29;;;;;;;1999.90;999.90;;;-1.90;99.90;;;;;;5067650;28;20427;-47
2021/01/14 06:27:06;;;;;;;1999.90;999.90;;;-1.80;99.90;;;;;;5046978;28;20467;-46
2021/01/14 06:29:34;;;;;;;1999.90;999.90;;;-1.80;99.90;;;;;;5060845;28;20946;-46
2021/01/14 06:32:07;;;;;;;1999.90;999.90;;;-1.80;99.90;;;;;;5062809;28;20462;-46
2021/01/14 06:34:34;;;;;;;1999.90;999.90;;;-1.70;99.90;;;;;;5066498;28;20439;-46
2021/01/14 06:37:20;;;;;;;1999.90;999.90;;;-1.70;99.90;;;;;;5062676;28;20489;-46
2021/01/14 06:39:51;;;;;;;1999.90;999.90;;;-1.70;99.90;;;;;;5062598;28;20462;-46
2021/01/14 06:42:28;;;;;;;1999.90;999.90;;;-1.70;99.90;;;;;;5045112;28;20432;-47
2021/01/14 06:44:58;;;;;;;1999.90;999.90;;;-1.70;99.90;;;;;;5058200;28;20456;-46
2021/01/14 06:47:31;;;;;;;1999.90;999.90;;;-1.60;99.90;;;;;;5058852;28;20865;-46
2021/01/14 06:50:26;;;;;;;1999.90;999.90;;;-1.60;99.90;;;;;;5064732;28;20771;-46
2021/01/14 06:52:59;;;;;;;1999.90;999.90;;;-1.60;99.90;;;;;;5052855;28;20520;-46
2021/01/14 06:55:26;;;;;;;1999.90;999.90;;;-1.60;99.90;;;;;;5065979;28;20975;-47
2021/01/14 06:58:14;;;;;;;1999.90;999.90;;;-1.60;99.90;;;;;;5054165;28;20439;-46
2021/01/14 07:00:45;;;;;;;1999.90;999.90;;;-1.60;99.90;;;;;;5066415;28;20484;-47
2021/01/14 07:03:16;;;;;;;1999.90;999.90;;;-1.60;99.90;;;;;;5062235;28;20944;-46
2021/01/14 07:05:59;;;;;;;1999.90;999.90;;;-1.60;99.90;;;;;;5068248;28;20439;-46
2021/01/14 07:08:37;;;;;;;1999.90;999.90;;;-1.60;99.90;;;;;;5061085;28;20484;-46
2021/01/14 07:11:07;;;;;;;1999.90;999.90;;;-1.50;99.90;;;;;;5057129;28;20538;-47
2021/01/14 07:13:37;;;;;;;1999.90;999.90;;;-1.50;99.90;;;;;;5068485;28;20572;-47
2021/01/14 07:16:04;;;;;;;1999.90;999.90;;;-1.50;99.90;;;;;;5064667;28;20550;-46
2021/01/14 07:18:32;;;;;;;1999.90;999.90;;;-1.40;99.90;;;;;;5058542;28;20470;-47
2021/01/14 07:21:07;;;;;;;1999.90;999.90;;;-1.40;99.90;;;;;;5066405;28;20411;-46
2021/01/14 07:23:38;;;;;;;1999.90;999.90;;;-1.40;99.90;;;;;;5048006;28;20520;-46
2021/01/14 07:26:05;;;;;;;1999.90;999.90;;;-1.40;99.90;;;;;;5060705;28;20447;-46
2021/01/14 07:28:35;;;;;;;1999.90;999.90;;;-1.40;99.90;;;;;;5033307;28;20436;-47
2021/01/14 07:31:21;;;;;;;1999.90;999.90;;;-1.40;99.90;;;;;;5052145;28;20435;-47
2021/01/14 07:33:47;;;;;;;1999.90;999.90;;;-1.40;99.90;;;;;;5035064;28;20503;-46
2021/01/14 07:36:16;;;;;;;1999.90;999.90;;;-1.40;99.90;;;;;;5047054;28;20471;-46
2021/01/14 07:38:48;;;;;;;1999.90;999.90;;;-1.50;99.90;;;;;;5048266;28;20473;-46
2021/01/14 07:41:14;;;;;;;1999.90;999.90;;;-1.40;99.90;;;;;;5032199;28;20441;-47
2021/01/14 07:43:41;;;;;;;1999.90;999.90;;;-1.40;99.90;;;;;;5044682;28;20447;-46
2021/01/14 07:46:20;;;;;;;1999.90;999.90;;;-1.40;99.90;;;;;;5053673;28;20201;-47
2021/01/14 07:48:46;;;;;;;1999.90;999.90;;;-1.30;99.90;;;;;;5037300;28;20473;-47
2021/01/14 07:51:13;;;;;;;1999.90;999.90;;;-1.30;99.90;;;;;;5042474;28;20448;-46
2021/01/14 07:53:38;;;;;;;1999.90;999.90;;;-1.30;99.90;;;;;;5051795;28;20963;-46
2021/01/14 07:56:24;;;;;;;1999.90;999.90;;;-1.20;99.90;;;;;;5051636;28;20461;-47
2021/01/14 07:58:54;;;;;;;1999.90;999.90;;;-1.20;99.90;;;;;;5038703;28;20191;-46
2021/01/14 08:01:20;;;;;;;1999.90;999.90;;;-1.20;99.90;;;;;;5052249;28;20909;-46
2021/01/14 08:03:46;;;;;;;1999.90;999.90;;;-1.20;99.90;;;;;;5051066;28;20436;-47
2021/01/14 08:06:44;;;;;;;1999.90;999.90;;;-1.20;99.90;;;;;;5045384;28;20211;-46
2021/01/14 08:09:11;;;;;;;1999.90;999.90;;;-1.20;99.90;;;;;;5049051;28;21023;-46
2021/01/14 08:11:45;;;;;;;1999.90;999.90;;;-1.20;99.90;;;;;;5048249;28;20443;-46
2021/01/14 08:14:16;;;;;;;1999.90;999.90;;;-1.10;99.90;;;;;;5048366;28;20458;-46
2021/01/14 08:16:43;;;;;;;1999.90;999.90;;;-1.10;99.90;;;;;;5040436;28;20631;-46
2021/01/14 08:19:20;;;;;;;1999.90;999.90;;;-1.10;99.90;;;;;;5045936;28;21023;-46
2021/01/14 08:22:02;;;;;;;1999.90;999.90;;;-1.10;99.90;;;;;;5038889;28;20424;-47
2021/01/14 08:24:54;;;;;;;1999.90;999.90;;;-1.10;99.90;;;;;;5035800;28;20471;-46
2021/01/14 08:27:33;;;;;;;1999.90;999.90;;;-1.10;99.90;;;;;;5043090;28;20963;-46
2021/01/14 08:30:06;;;;;;;1999.90;999.90;;;-1.10;99.90;;;;;;5042359;28;20445;-47
2021/01/14 08:32:38;;;;;;;1999.90;999.90;;;-1.10;99.90;;;;;;5039243;28;20448;-47
2021/01/14 08:35:07;;;;;;;1999.90;999.90;;;-1.10;99.90;;;;;;5042692;28;20803;-46
2021/01/14 08:37:43;;;;;;;1999.90;999.90;;;-1.00;99.90;;;;;;5045526;28;20906;-47
2021/01/14 08:40:11;;;;;;;1999.90;999.90;;;-1.00;99.90;;;;;;5045100;28;20498;-46
2021/01/14 08:42:42;;;;;;;1999.90;999.90;;;-0.90;99.90;;;;;;5043185;28;20425;-47
2021/01/14 08:45:20;;;;;;;1999.90;999.90;;;-1.10;99.90;;;;;;5041630;28;20452;-46
2021/01/14 08:48:09;;;;;;;1999.90;999.90;;;-1.10;99.90;;;;;;5041250;28;20429;-46
2021/01/14 08:50:45;;;;;;;1999.90;999.90;;;-1.10;99.90;;;;;;5040496;28;20430;-46
2021/01/14 08:53:18;;;;;;;1999.90;999.90;;;-1.00;99.90;;;;;;5038441;28;21206;-46
2021/01/14 08:55:50;;;;;;;1999.90;999.90;;;-1.00;99.90;;;;;;5043062;28;20479;-46
2021/01/14 08:58:18;;;;;;;1999.90;999.90;;;-1.10;99.90;;;;;;5041400;28;20817;-47
2021/01/14 09:00:49;;;;;;;1999.90;999.90;;;-1.10;99.90;;;;;;5044362;28;20412;-46
2021/01/14 09:03:15;;;;;;;1999.90;999.90;;;-1.10;99.90;;;;;;5040683;28;20428;-46
2021/01/14 09:05:45;;;;;;;1999.90;999.90;;;-1.00;99.90;;;;;;5041853;28;20491;-47
2021/01/14 09:08:14;;;;;;;1999.90;999.90;;;-1.00;99.90;;;;;;5042721;28;20531;-47
2021/01/14 09:10:43;;;;;;;1999.90;999.90;;;-0.90;99.90;;;;;;5027343;28;20484;-47
2021/01/14 09:13:11;;;;;;;1999.90;999.90;;;-0.80;99.90;;;;;;5043191;28;20447;-47
2021/01/14 09:15:37;;;;;;;1999.90;999.90;;;-0.80;99.90;;;;;;5042890;28;20481;-47
2021/01/14 09:18:03;;;;;;;1999.90;999.90;;;-0.80;99.90;;;;;;5043551;28;20433;-47
2021/01/14 09:20:32;;;;;;;1999.90;999.90;;;-0.80;99.90;;;;;;5043230;28;20194;-47
2021/01/14 09:23:21;;;;;;;1999.90;999.90;;;-0.80;99.90;;;;;;5045136;28;20512;-47
2021/01/14 09:25:54;;;;;;;1999.90;999.90;;;-0.80;99.90;;;;;;5043560;28;20526;-47
2021/01/14 09:28:21;;;;;;;1999.90;999.90;;;-0.70;99.90;;;;;;5044250;28;20432;-47
2021/01/14 09:30:57;;;;;;;1999.90;999.90;;;-0.70;99.90;;;;;;5046045;28;20426;-47
2021/01/14 09:33:31;;;;;;;1999.90;999.90;;;-0.60;99.90;;;;;;5042417;28;20440;-47
2021/01/14 09:36:17;;;;;;;1999.90;999.90;;;-0.50;99.90;;;;;;5039822;28;20522;-47
2021/01/14 09:38:54;;;;;;;1999.90;999.90;;;-0.50;99.90;;;;;;5044785;28;20433;-46
2021/01/14 09:41:37;;;;;;;1999.90;999.90;;;-0.40;99.90;;;;;;5044802;28;20420;-47
2021/01/14 09:44:07;;;;;;;1999.90;999.90;;;-0.30;99.90;;;;;;5040265;28;20446;-47
2021/01/14 09:46:46;;;;;;;1999.90;999.90;;;-0.30;99.90;;;;;;5043969;28;20459;-47
2021/01/14 09:49:21;;;;;;;1999.90;999.90;;;-0.30;99.90;;;;;;5043992;28;20430;-47
2021/01/14 09:51:50;;;;;;;1999.90;999.90;;;-0.20;99.90;;;;;;5042130;28;20479;-46
2021/01/14 09:54:17;;;;;;;1999.90;999.90;;;-0.20;99.90;;;;;;5042106;28;20462;-48
2021/01/14 09:56:47;;;;;;;1999.90;999.90;;;-0.10;99.90;;;;;;5038848;28;20485;-47
2021/01/14 09:59:19;;;;;;;1999.90;999.90;;;-0.10;99.90;;;;;;5041804;28;20824;-48
2021/01/14 10:02:05;;;;;;;1999.90;999.90;;;0.00;99.90;;;;;;5041706;28;20492;-47
2021/01/14 10:04:33;;;;;;;1999.90;999.90;;;0.00;99.90;;;;;;5043608;28;20453;-47
2021/01/14 10:07:05;;;;;;;1999.90;999.90;;;0.00;99.90;;;;;;5024947;28;20444;-47
2021/01/14 10:09:35;;;;;;;1999.90;999.90;;;0.00;99.90;;;;;;5025783;28;20431;-47
2021/01/14 10:12:04;;;;;;;1999.90;999.90;;;0.00;99.90;;;;;;5037318;28;20433;-47
2021/01/14 10:14:30;;;;;;;1999.90;999.90;;;0.10;99.90;;;;;;5042142;28;20445;-47
2021/01/14 10:17:07;;;;;;;1999.90;999.90;;;0.10;99.90;;;;;;5040355;28;20488;-47
2021/01/14 10:19:36;;;;;;;1999.90;999.90;;;0.00;99.90;;;;;;5042142;28;20430;-47
2021/01/14 10:22:05;;;;;;;1999.90;999.90;;;0.00;99.90;;;;;;5043843;28;20447;-47
2021/01/14 10:24:31;;;;;;;1999.90;999.90;;;0.10;99.90;;;;;;5044464;28;20653;-47
2021/01/14 10:27:30;;;;;;;1999.90;999.90;;;0.10;99.90;;;;;;5043149;28;20494;-47
2021/01/14 10:29:57;;;;;;;1999.90;999.90;;;0.10;99.90;;;;;;5011634;28;20453;-47
2021/01/14 10:32:23;;;;;;;1999.90;999.90;;;0.20;99.90;;;;;;5040607;28;20418;-47
2021/01/14 10:34:55;;;;;;;1999.90;999.90;;;0.30;99.90;;;;;;5035506;28;21266;-46
2021/01/14 10:37:26;;;;;;;1999.90;999.90;;;0.30;99.90;;;;;;5040652;28;20432;-46
2021/01/14 10:39:56;;;;;;;1999.90;999.90;;;0.20;99.90;;;;;;5045834;28;20425;-46
2021/01/14 10:42:37;;;;;;;1999.90;999.90;;;0.20;99.90;;;;;;5045693;28;20425;-46
2021/01/14 10:45:03;;;;;;;1999.90;999.90;;;0.00;99.90;;;;;;5045038;28;20522;-46
2021/01/14 10:47:29;;;;;;;1999.90;999.90;;;-0.10;99.90;;;;;;5045150;28;20413;-46
2021/01/14 10:49:55;;;;;;;1999.90;999.90;;;-0.10;99.90;;;;;;5046585;28;20561;-46
2021/01/14 10:52:21;;;;;;;1999.90;999.90;;;0.00;99.90;;;;;;5045338;28;20421;-46
2021/01/14 10:55:00;;;;;;;1999.90;999.90;;;0.10;99.90;;;;;;5044808;28;20421;-46
2021/01/14 10:57:54;;;;;;;1999.90;999.90;;;0.10;99.90;;;;;;5045797;28;20645;-47
2021/01/14 11:00:21;;;;;;;1999.90;999.90;;;0.00;99.90;;;;;;5027496;28;20928;-47
2021/01/14 11:02:48;;;;;;;1999.90;999.90;;;-0.10;99.90;;;;;;5041830;28;20423;-46
2021/01/14 11:05:14;;;;;;;1999.90;999.90;;;-0.20;99.90;;;;;;5050193;28;20461;-46
2021/01/14 11:07:41;;;;;;;1999.90;999.90;;;-0.20;99.90;;;;;;5051469;28;20528;-46
2021/01/14 11:10:10;;;;;;;1999.90;999.90;;;-0.10;99.90;;;;;;5051398;28;20426;-46
2021/01/14 11:13:24;;;;;;;1999.90;999.90;;;0.00;99.90;;;;;;5050320;28;20550;-47
2021/01/14 11:15:50;;;;;;;1999.90;999.90;;;-0.10;99.90;;;;;;5050291;28;20524;-46
2021/01/14 11:18:15;;;;;;;1999.90;999.90;;;-0.10;99.90;;;;;;5050826;28;20448;-47
2021/01/14 11:20:41;;;;;;;1999.90;999.90;;;-0.10;99.90;;;;;;5051489;28;20166;-47
2021/01/14 11:23:07;;;;;;;1999.90;999.90;;;-0.10;99.90;;;;;;5051442;28;20191;-46
2021/01/14 11:25:32;;;;;;;1999.90;999.90;;;0.00;99.90;;;;;;5045790;28;20207;-47
2021/01/14 11:27:58;;;;;;;1999.90;999.90;;;0.00;99.90;;;;;;5048635;28;20926;-46
2021/01/14 11:30:24;;;;;;;1999.90;999.90;;;0.10;99.90;;;;;;5049814;28;20198;-46
2021/01/14 16:04:28;;;;;;;1999.90;999.90;;;-0.50;99.90;;;;;;5061856;27;20571;-45
2021/01/14 16:06:53;;;;;;;1999.90;999.90;;;-0.50;99.90;;;;;;5055899;28;20517;-45
2021/01/14 16:09:19;;;;;;;1999.90;999.90;;;-0.40;99.90;;;;;;5063193;28;20539;-46
2021/01/14 16:11:45;;;;;;;1999.90;999.90;;;-0.30;99.90;;;;;;5049910;28;20401;-45
2021/01/14 16:14:11;;;;;;;1999.90;999.90;;;-0.40;99.90;;;;;;5050601;28;20483;-45
2021/01/14 16:16:38;;;;;;;1999.90;999.90;;;-0.30;99.90;;;;;;5059823;28;20456;-46
2021/01/14 16:19:05;;;;;;;1999.90;999.90;;;-0.30;99.90;;;;;;5054763;28;20185;-45
2021/01/14 16:21:31;;;;;;;1999.90;999.90;;;-0.30;99.90;;;;;;5059144;28;20478;-45
2021/01/14 16:23:57;;;;;;;1999.90;999.90;;;-0.40;99.90;;;;;;5064908;28;20998;-45
2021/01/14 16:26:23;;;;;;;1999.90;999.90;;;-0.30;99.90;;;;;;5059039;28;20453;-45
2021/01/14 16:28:49;;;;;;;1999.90;999.90;;;-0.30;99.90;;;;;;5059464;28;20230;-45
2021/01/14 16:31:15;;;;;;;1999.90;999.90;;;-0.20;99.90;;;;;;5050695;28;21131;-46
2021/01/14 16:33:40;;;;;;;1999.90;999.90;;;-0.20;99.90;;;;;;5051906;28;20220;-45
2021/01/14 16:36:06;;;;;;;1999.90;999.90;;;-0.20;99.90;;;;;;5055154;28;20298;-45
2021/01/14 16:38:32;;;;;;;1999.90;999.90;;;-0.20;99.90;;;;;;5049297;28;20193;-46
2021/01/14 16:40:58;;;;;;;1999.90;999.90;;;-0.30;99.90;;;;;;5049853;28;20425;-45
2021/01/14 16:43:24;;;;;;;1999.90;999.90;;;-0.30;99.90;;;;;;5046170;28;20460;-46
2021/01/14 16:45:50;;;;;;;1999.90;999.90;;;-0.30;99.90;;;;;;5059290;28;20205;-46
2021/01/14 16:48:17;;;;;;;1999.90;999.90;;;-0.40;99.90;;;;;;5065754;28;20539;-46
2021/01/14 16:50:46;;;;;;;1999.90;999.90;;;-0.40;99.90;;;;;;5049912;28;20445;-46
2021/01/14 16:53:12;;;;;;;1999.90;999.90;;;-0.30;99.90;;;;;;5055510;28;20443;-46
2021/01/14 16:55:38;;;;;;;1999.90;999.90;;;-0.20;99.90;;;;;;5049823;28;20462;-46
2021/01/14 16:58:03;;;;;;;1999.90;999.90;;;-0.20;99.90;;;;;;5057923;28;20217;-46
2021/01/14 17:00:29;;;;;;;1999.90;999.90;;;-0.30;99.90;;;;;;5063738;28;20186;-46
2021/01/14 17:02:55;;;;;;;1999.90;999.90;;;-0.20;99.90;;;;;;5052033;28;20245;-46
2021/01/14 17:05:20;;;;;;;1999.90;999.90;;;-0.30;99.90;;;;;;5063749;28;20248;-46
2021/01/14 17:07:46;;;;;;;1999.90;999.90;;;-0.30;99.90;;;;;;5055274;28;20610;-46
2021/01/14 17:10:12;;;;;;;1999.90;999.90;;;-0.40;99.90;;;;;;5053817;28;20188;-46
2021/01/14 17:12:37;;;;;;;1999.90;999.90;;;-0.40;99.90;;;;;;5052744;28;20695;-46
2021/01/14 17:15:04;;;;;;;1999.90;999.90;;;-0.30;99.90;;;;;;5041592;28;20248;-46
2021/01/14 17:17:30;;;;;;;1999.90;999.90;;;-0.40;99.90;;;;;;5036847;28;20219;-46
2021/01/14 17:20:00;;;;;;;1999.90;999.90;;;-0.40;99.90;;;;;;5034595;28;21167;-46
2021/01/14 17:22:32;;;;;;;1999.90;999.90;;;-0.40;99.90;;;;;;5036934;28;20203;-46
2021/01/14 17:24:58;;;;;;;1999.90;999.90;;;-0.40;99.90;;;;;;5043632;28;20448;-46
2021/01/14 17:27:24;;;;;;;1999.90;999.90;;;-0.40;99.90;;;;;;5035830;28;20971;-46
2021/01/14 17:29:49;;;;;;;1999.90;999.90;;;-0.30;99.90;;;;;;5043738;28;20233;-46
2021/01/14 17:32:15;;;;;;;1999.90;999.90;;;-0.40;99.90;;;;;;5044485;28;20488;-46
2021/01/14 17:34:40;;;;;;;1999.90;999.90;;;-0.40;99.90;;;;;;5036452;28;20242;-46
2021/01/14 17:37:06;;;;;;;1999.90;999.90;;;-0.40;99.90;;;;;;5040315;28;20529;-46
2021/01/14 17:39:32;;;;;;;1999.90;999.90;;;-0.50;99.90;;;;;;5040032;28;20234;-46
2021/01/14 17:41:58;;;;;;;1999.90;999.90;;;-0.50;99.90;;;;;;5032958;28;20721;-46
2021/01/14 17:44:25;;;;;;;1999.90;999.90;;;-0.50;99.90;;;;;;5033318;28;20218;-46
2021/01/14 17:46:51;;;;;;;1999.90;999.90;;;-0.50;99.90;;;;;;5041511;28;20508;-46
2021/01/14 17:49:16;;;;;;;1999.90;999.90;;;-0.40;99.90;;;;;;5040697;28;20463;-46
2021/01/14 17:51:42;;;;;;;1999.90;999.90;;;-0.40;99.90;;;;;;5043763;28;20191;-46
2021/01/14 17:54:08;;;;;;;1999.90;999.90;;;-0.40;99.90;;;;;;5042455;28;20218;-47
2021/01/14 17:56:33;;;;;;;1999.90;999.90;;;-0.50;99.90;;;;;;5036167;28;20255;-46
2021/01/14 17:58:59;;;;;;;1999.90;999.90;;;-0.50;99.90;;;;;;5038720;28;20483;-46
2021/01/14 18:01:25;;;;;;;1999.90;999.90;;;-0.50;99.90;;;;;;5039057;28;20222;-46
2021/01/14 18:03:52;;;;;;;1999.90;999.90;;;-0.40;99.90;;;;;;5038874;28;20218;-47
2021/01/14 18:06:21;;;;;;;1999.90;999.90;;;-0.40;99.90;;;;;;5036466;28;20699;-46
2021/01/14 18:08:47;;;;;;;1999.90;999.90;;;-0.40;99.90;;;;;;5041172;28;20825;-46
2021/01/14 18:11:13;;;;;;;1999.90;999.90;;;-0.40;99.90;;;;;;5032913;28;20432;-46
2021/01/14 18:13:39;;;;;;;1999.90;999.90;;;-0.40;99.90;;;;;;5049041;28;20444;-46
2021/01/14 18:16:05;;;;;;;1999.90;999.90;;;-0.40;99.90;;;;;;5041731;28;21050;-46
2021/01/14 18:18:30;;;;;;;1999.90;999.90;;;-0.40;99.90;;;;;;5040008;28;20191;-47
2021/01/14 18:20:57;;;;;;;1999.90;999.90;;;-0.50;99.90;;;;;;5043693;28;20437;-46
2021/01/14 18:23:22;;;;;;;1999.90;999.90;;;-0.50;99.90;;;;;;5049740;28;20218;-46
2021/01/14 18:25:51;;;;;;;1999.90;999.90;;;-0.50;99.90;;;;;;5048224;28;20961;-46
2021/01/14 18:28:17;;;;;;;1999.90;999.90;;;-0.50;99.90;;;;;;5043728;28;20276;-46
2021/01/14 18:30:43;;;;;;;1999.90;999.90;;;-0.60;99.90;;;;;;5032467;28;20526;-46
2021/01/14 18:33:08;;;;;;;1999.90;999.90;;;-0.60;99.90;;;;;;5033960;28;20597;-50
2021/01/14 18:35:34;;;;;;;1999.90;999.90;;;-0.70;99.90;;;;;;5033373;28;20276;-46
2021/01/14 18:38:00;;;;;;;1999.90;999.90;;;-0.70;99.90;;;;;;5043034;28;20240;-46
2021/01/14 18:40:25;;;;;;;1999.90;999.90;;;-0.80;99.90;;;;;;5033554;28;20190;-46
2021/01/14 18:42:51;;;;;;;1999.90;999.90;;;-0.80;99.90;;;;;;5037286;28;20201;-46
2021/01/14 18:45:17;;;;;;;1999.90;999.90;;;-0.80;99.90;;;;;;5037153;28;20472;-46
2021/01/14 18:47:44;;;;;;;1999.90;999.90;;;-0.80;99.90;;;;;;5037380;28;20191;-46
2021/01/14 18:50:13;;;;;;;1999.90;999.90;;;-0.70;99.90;;;;;;5032387;28;20820;-46
2021/01/14 18:52:46;;;;;;;1999.90;999.90;;;-0.70;99.90;;;;;;5032536;28;20511;-46
2021/01/14 18:55:14;;;;;;;1999.90;999.90;;;-0.70;99.90;;;;;;5031608;28;20465;-46
2021/01/14 18:57:40;;;;;;;1999.90;999.90;;;-0.70;99.90;;;;;;5034080;28;20484;-47
2021/01/14 19:00:15;;;;;;;1999.90;999.90;;;-0.80;99.90;;;;;;5037122;28;20440;-46
2021/01/14 19:02:42;;;;;;;1999.90;999.90;;;-0.90;99.90;;;;;;5035863;28;20496;-46
2021/01/14 19:05:10;;;;;;;1999.90;999.90;;;-0.90;99.90;;;;;;5030460;28;20837;-46
2021/01/14 19:07:37;;;;;;;1999.90;999.90;;;-0.80;99.90;;;;;;5036213;28;20442;-46
2021/01/14 19:10:05;;;;;;;1999.90;999.90;;;-0.80;99.90;;;;;;5034308;28;20941;-46
2021/01/14 19:12:30;;;;;;;1999.90;999.90;;;-0.70;99.90;;;;;;5035967;28;20446;-46
2021/01/14 19:14:56;;;;;;;1999.90;999.90;;;-0.80;99.90;;;;;;5041884;28;20863;-46
2021/01/14 19:17:26;;;;;;;1999.90;999.90;;;-0.90;99.90;;;;;;5035181;28;20206;-46
2021/01/14 19:19:51;;;;;;;1999.90;999.90;;;-0.90;99.90;;;;;;5037503;28;20203;-46
2021/01/14 19:22:17;;;;;;;1999.90;999.90;;;-0.90;99.90;;;;;;5039975;28;20417;-46
2021/01/14 19:24:43;;;;;;;1999.90;999.90;;;-1.00;99.90;;;;;;5036061;28;20254;-46
2021/01/14 19:27:08;;;;;;;1999.90;999.90;;;-1.10;99.90;;;;;;5040067;28;20547;-46
2021/01/14 19:29:34;;;;;;;1999.90;999.90;;;-1.20;99.90;;;;;;5037467;28;20214;-46
2021/01/14 19:32:01;;;;;;;1999.90;999.90;;;-1.20;99.90;;;;;;5038722;28;20179;-46
2021/01/14 19:34:27;;;;;;;1999.90;999.90;;;-1.20;99.90;;;;;;5038188;28;20195;-46
2021/01/14 19:36:52;;;;;;;1999.90;999.90;;;-1.20;99.90;;;;;;5037843;28;20496;-46
2021/01/14 19:39:18;;;;;;;1999.90;999.90;;;-1.20;99.90;;;;;;5039510;28;20938;-46
2021/01/14 19:41:44;;;;;;;1999.90;999.90;;;-1.20;99.90;;;;;;5039045;28;20209;-46
2021/01/14 19:44:09;;;;;;;1999.90;999.90;;;-1.10;99.90;;;;;;5039284;28;20248;-46
2021/01/14 19:46:37;;;;;;;1999.90;999.90;;;-1.10;99.90;;;;;;5040678;28;20664;-46
2021/01/14 19:49:04;;;;;;;1999.90;999.90;;;-1.20;99.90;;;;;;5035635;28;20274;-46
2021/01/14 19:51:30;;;;;;;1999.90;999.90;;;-1.10;99.90;;;;;;5039422;28;20469;-46
2021/01/14 19:53:56;;;;;;;1999.90;999.90;;;-1.10;99.90;;;;;;5036863;28;20537;-46
2021/01/14 19:56:22;;;;;;;1999.90;999.90;;;-1.20;99.90;;;;;;5038376;28;20460;-46
2021/01/14 19:58:48;;;;;;;1999.90;999.90;;;-1.30;99.90;;;;;;5035487;28;20821;-46
2021/01/14 20:01:13;;;;;;;1999.90;999.90;;;-1.40;99.90;;;;;;5040857;28;20185;-46
2021/01/14 20:03:39;;;;;;;1999.90;999.90;;;-1.30;99.90;;;;;;5033965;28;20797;-46
2021/01/14 20:06:05;;;;;;;1999.90;999.90;;;-1.30;99.90;;;;;;5032935;28;20229;-46
2021/01/14 20:08:30;;;;;;;1999.90;999.90;;;-1.30;99.90;;;;;;5029437;28;20206;-46
2021/01/14 20:10:56;;;;;;;1999.90;999.90;;;-1.30;99.90;;;;;;5048424;28;20425;-47
2021/01/14 20:13:22;;;;;;;1999.90;999.90;;;-1.20;99.90;;;;;;5045252;28;20273;-46
2021/01/14 20:15:49;;;;;;;1999.90;999.90;;;-1.20;99.90;;;;;;5030536;28;20202;-46
2021/01/14 20:18:15;;;;;;;1999.90;999.90;;;-1.20;99.90;;;;;;5030344;28;20536;-46
2021/01/14 20:20:41;;;;;;;1999.90;999.90;;;-1.10;99.90;;;;;;5029577;28;20442;-46
2021/01/14 20:23:06;;;;;;;1999.90;999.90;;;-1.20;99.90;;;;;;5036502;28;21008;-46
2021/01/14 20:25:32;;;;;;;1999.90;999.90;;;-1.10;99.90;;;;;;5044168;28;20703;-46
2021/01/14 20:27:58;;;;;;;1999.90;999.90;;;-1.10;99.90;;;;;;5049202;28;20323;-46
2021/01/14 20:30:23;;;;;;;1999.90;999.90;;;-1.10;99.90;;;;;;5036129;28;20193;-46
2021/01/14 20:32:49;;;;;;;1999.90;999.90;;;-1.10;99.90;;;;;;5032538;28;20305;-46
2021/01/14 20:35:14;;;;;;;1999.90;999.90;;;-1.10;99.90;;;;;;5032352;28;20581;-46
2021/01/14 20:37:40;;;;;;;1999.90;999.90;;;-1.10;99.90;;;;;;5030213;28;20619;-46
2021/01/14 20:40:07;;;;;;;1999.90;999.90;;;-1.10;99.90;;;;;;5030004;28;20187;-46
2021/01/14 20:42:37;;;;;;;1999.90;999.90;;;-1.10;99.90;;;;;;5037625;28;20723;-47
2021/01/14 20:45:10;;;;;;;1999.90;999.90;;;-1.20;99.90;;;;;;5036398;28;20462;-46
2021/01/14 20:47:37;;;;;;;1999.90;999.90;;;-1.10;99.90;;;;;;5044796;28;21001;-46
2021/01/14 20:50:04;;;;;;;1999.90;999.90;;;-1.10;99.90;;;;;;5042079;28;20407;-46
2021/01/14 20:52:36;;;;;;;1999.90;999.90;;;-1.10;99.90;;;;;;5053250;28;20434;-46
2021/01/14 20:55:03;;;;;;;1999.90;999.90;;;-1.10;99.90;;;;;;5048206;28;20478;-46
2021/01/14 20:57:29;;;;;;;1999.90;999.90;;;-1.10;99.90;;;;;;5045070;28;20464;-46
2021/01/14 20:59:58;;;;;;;1999.90;999.90;;;-1.10;99.90;;;;;;5034043;28;20513;-46
2021/01/14 21:02:26;;;;;;;1999.90;999.90;;;-1.20;99.90;;;;;;5052836;28;20506;-46
2021/01/14 21:04:52;;;;;;;1999.90;999.90;;;-1.20;99.90;;;;;;5052440;28;20425;-46
2021/01/14 21:07:17;;;;;;;1999.90;999.90;;;-1.20;99.90;;;;;;5046398;28;20957;-46
2021/01/14 21:09:44;;;;;;;1999.90;999.90;;;-1.10;99.90;;;;;;5045123;28;20508;-46
2021/01/14 21:12:09;;;;;;;1999.90;999.90;;;-1.20;99.90;;;;;;5032421;28;20293;-46
2021/01/14 21:14:35;;;;;;;1999.90;999.90;;;-1.20;99.90;;;;;;5048456;28;20532;-46
2021/01/14 21:17:01;;;;;;;1999.90;999.90;;;-1.20;99.90;;;;;;5033539;28;20215;-46
2021/01/14 21:19:26;;;;;;;1999.90;999.90;;;-1.20;99.90;;;;;;5032944;28;20187;-46
2021/01/14 21:21:52;;;;;;;1999.90;999.90;;;-1.30;99.90;;;;;;5033370;28;20229;-46
2021/01/14 21:24:17;;;;;;;1999.90;999.90;;;-1.30;99.90;;;;;;5049565;28;20685;-46
2021/01/14 21:26:43;;;;;;;1999.90;999.90;;;-1.40;99.90;;;;;;5050775;28;20210;-47
2021/01/14 21:29:08;;;;;;;1999.90;999.90;;;-1.40;99.90;;;;;;5052933;28;20232;-46
2021/01/14 21:31:36;;;;;;;1999.90;999.90;;;-1.40;99.90;;;;;;5039729;28;20190;-46
2021/01/14 21:34:05;;;;;;;1999.90;999.90;;;-1.50;99.90;;;;;;5042504;28;20647;-46
2021/01/14 21:36:32;;;;;;;1999.90;999.90;;;-1.70;99.90;;;;;;5046881;28;20464;-46
2021/01/14 21:38:59;;;;;;;1999.90;999.90;;;-1.60;99.90;;;;;;5052753;28;20416;-46
2021/01/14 21:41:26;;;;;;;1999.90;999.90;;;-1.60;99.90;;;;;;5051147;28;20491;-46
2021/01/14 21:43:54;;;;;;;1999.90;999.90;;;-1.70;99.90;;;;;;5032144;28;20475;-46
2021/01/14 21:46:33;;;;;;;1999.90;999.90;;;-1.60;99.90;;;;;;5040715;28;20487;-46
2021/01/14 21:49:00;;;;;;;1999.90;999.90;;;-1.70;99.90;;;;;;5049268;28;20417;-46
2021/01/14 21:51:25;;;;;;;1999.90;999.90;;;-1.70;99.90;;;;;;5033597;28;20409;-46
2021/01/14 21:53:52;;;;;;;1999.90;999.90;;;-1.90;99.90;;;;;;5032970;28;20426;-46
2021/01/14 21:56:27;;;;;;;1999.90;999.90;;;-1.90;99.90;;;;;;5032845;28;20437;-46
2021/01/14 21:58:53;;;;;;;1999.90;999.90;;;-2.00;99.90;;;;;;5032855;28;20416;-46
2021/01/14 22:01:20;;;;;;;1999.90;999.90;;;-1.90;99.90;;;;;;5035046;28;20425;-46
2021/01/14 22:03:46;;;;;;;1999.90;999.90;;;-2.00;99.90;;;;;;5048309;28;20561;-46
2021/01/14 22:06:11;;;;;;;1999.90;999.90;;;-2.10;99.90;;;;;;5034912;28;20454;-46
2021/01/14 22:08:37;;;;;;;1999.90;999.90;;;-2.20;99.90;;;;;;5032525;28;20183;-46
2021/01/14 22:11:03;;;;;;;1999.90;999.90;;;-2.20;99.90;;;;;;5033826;28;20213;-46
2021/01/14 22:13:29;;;;;;;1999.90;999.90;;;-2.20;99.90;;;;;;5033685;28;20190;-46
2021/01/14 22:15:54;;;;;;;1999.90;999.90;;;-2.30;99.90;;;;;;5043062;28;20472;-46
2021/01/14 22:18:20;;;;;;;1999.90;999.90;;;-2.20;99.90;;;;;;5039244;28;20612;-46
2021/01/14 22:20:45;;;;;;;1999.90;999.90;;;-2.20;99.90;;;;;;5052542;28;20749;-46
2021/01/14 22:23:11;;;;;;;1999.90;999.90;;;-2.30;99.90;;;;;;5040437;28;20206;-46
2021/01/14 22:25:37;;;;;;;1999.90;999.90;;;-2.40;99.90;;;;;;5032074;28;20272;-46
2021/01/14 22:28:03;;;;;;;1999.90;999.90;;;-2.30;99.90;;;;;;5041817;28;20182;-46
2021/01/14 22:30:29;;;;;;;1999.90;999.90;;;-2.20;99.90;;;;;;5042850;28;20194;-46
2021/01/14 22:32:55;;;;;;;1999.90;999.90;;;-2.20;99.90;;;;;;5035168;28;20193;-46
2021/01/14 22:35:20;;;;;;;1999.90;999.90;;;-2.30;99.90;;;;;;5041419;28;20469;-46
